Webcam Rollhalt 06

Webcam Rollhalt 24

 

Metar - Laupheim Airfield

[Source: ADDS]
METAR
ETHL 090220Z 26013KT 9999 FEW018 SCT039 BKN140 07/02 Q1007 BLU =
TAF

Notice: Undefined index: sun in /homepages/1/d158740339/htdocs/joomla/modules/mod_wx/tmpl/default.php on line 13

Metar - Augsburg Airfield

[Source: ADDS]
METAR
EDMA 090250Z AUTO 25005KT 9999 // FEW034/// BKN190/// 06/04 Q1006 =
EDMA 081700Z 0818/0903 24015G30KT CAVOK BECMG 0823/0901 24012KT
TAF
EDMA 081700Z 0818/0903 24015G30KT CAVOK BECMG 0823/0901 24012KT =
SR / SS: 06:57 / 15:25 UTC (Günzburg 2019-12-09)

Metar - Memmingen Airfield

[Source: ADDS]
METAR
EDJA 082120Z 22017KT 9999 FEW050 09/03 Q1007 =
EDJA 081700Z 0818/0903 23020G30KT CAVOK BECMG 0821/0823 24015G30KT
TAF
EDJA 081700Z 0818/0903 23020G30KT CAVOK BECMG 0821/0823 24015G30KT =

Notice: Undefined index: sun in /homepages/1/d158740339/htdocs/joomla/modules/mod_wx/tmpl/default.php on line 13

Metar - Neuburg/Donau Airfield

[Source: ADDS]
METAR
ETSN 090220Z 26010KT 9999 SCT050 BKN160 07/02 Q1006 BLU =
ETSN 090210Z 0903/0912 22015G25KT 9999 NSW SCT030 BKN080 TEMPO 0903/0912 24018G28KT 4000 -RA BKN012 OVC060 BY ETGL
TAF
ETSN 090210Z 0903/0912 22015G25KT 9999 NSW SCT030 BKN080 TEMPO 0903/0912 24018G28KT 4000 -RA BKN012 OVC060 BY ETGL =

Notice: Undefined index: sun in /homepages/1/d158740339/htdocs/joomla/modules/mod_wx/tmpl/default.php on line 13

Metar - Stuttgart Airfield

[Source: ADDS]
METAR
EDDS 090250Z 22009G19KT 170V260 9999 -SHRA SCT032TCU 07/03 Q1005 =
EDDS 082300Z 0900/0924 21009KT 9999 SCT025 PROB30 TEMPO 0902/0909 21015G25KT 4000 SHRA BKN020CB PROB40 TEMPO 0909/0919 24015G30KT 2500 SHRAGS BKN020CB
TAF
EDDS 082300Z 0900/0924 21009KT 9999 SCT025 PROB30 TEMPO 0902/0909 21015G25KT 4000 SHRA BKN020CB PROB40 TEMPO 0909/0919 24015G30KT 2500 SHRAGS BKN020CB =

Notice: Undefined index: sun in /homepages/1/d158740339/htdocs/joomla/modules/mod_wx/tmpl/default.php on line 13

Metar - Niederstetten Airfield

[Source: ADDS]
METAR
ETHN 090220Z AUTO 26019G30KT 9999 // ////// 06/03 Q1004 /// =
TAF

Notice: Undefined index: sun in /homepages/1/d158740339/htdocs/joomla/modules/mod_wx/tmpl/default.php on line 13